createdAt,value
2018-03-30T00:00:21.644Z,7.40
2018-03-30T00:07:28.932Z,6.20
2018-03-30T00:08:36.028Z,5.80
2018-03-30T00:09:42.752Z,5.10
2018-03-30T00:10:49.670Z,5.00
2018-03-30T00:11:56.625Z,6.20
2018-03-30T00:13:03.424Z,5.10
2018-03-30T00:14:10.101Z,4.70
2018-03-30T00:15:16.806Z,4.80
2018-03-30T00:16:23.508Z,6.90
2018-03-30T00:17:30.200Z,4.70
2018-03-30T00:18:36.917Z,4.70
2018-03-30T00:19:43.609Z,5.10
2018-03-30T00:20:50.393Z,5.90
2018-03-30T00:21:57.094Z,4.60
2018-03-30T00:23:03.843Z,5.00
2018-03-30T00:24:10.576Z,4.80
2018-03-30T00:25:17.285Z,4.40
2018-03-30T00:26:24.100Z,6.50
2018-03-30T00:27:30.833Z,5.00
2018-03-30T00:28:37.557Z,5.00
2018-03-30T00:29:44.306Z,4.50
2018-03-30T00:30:51.003Z,4.50
2018-03-30T00:31:57.795Z,4.80
2018-03-30T00:33:04.597Z,5.00
2018-03-30T00:34:11.312Z,5.20
2018-03-30T00:35:18.033Z,5.40
2018-03-30T00:36:24.722Z,5.80
2018-03-30T00:37:31.496Z,5.20
2018-03-30T00:38:38.341Z,4.80
2018-03-30T00:39:45.077Z,4.40
2018-03-30T00:40:51.841Z,5.00
2018-03-30T00:41:58.581Z,5.80
2018-03-30T00:43:05.319Z,4.90
2018-03-30T00:44:12.136Z,5.10
2018-03-30T00:45:18.845Z,5.30
2018-03-30T00:46:25.727Z,4.80
2018-03-30T00:47:32.443Z,4.80
2018-03-30T00:48:39.225Z,5.10
2018-03-30T00:49:46.086Z,5.40
2018-03-30T00:50:52.880Z,4.70
2018-03-30T00:51:59.597Z,5.70
2018-03-30T00:53:06.305Z,4.90
2018-03-30T00:54:13.333Z,7.40
2018-03-30T00:55:20.069Z,4.90
2018-03-30T00:56:26.872Z,5.00
2018-03-30T00:57:33.557Z,7.00
2018-03-30T00:58:40.240Z,4.90
2018-03-30T00:59:46.989Z,6.10
2018-03-30T01:00:53.697Z,4.90
2018-03-30T01:02:00.456Z,4.90
2018-03-30T01:03:07.197Z,4.80
2018-03-30T01:04:13.874Z,5.00
2018-03-30T01:05:20.609Z,5.40
2018-03-30T01:06:27.320Z,5.10
2018-03-30T01:07:34.471Z,5.30
2018-03-30T01:08:41.172Z,5.50
2018-03-30T01:09:47.888Z,7.30
2018-03-30T01:10:54.680Z,4.80
2018-03-30T01:12:01.375Z,4.90
2018-03-30T01:13:08.075Z,6.70
2018-03-30T01:14:14.792Z,6.00
2018-03-30T01:15:21.505Z,5.10
2018-03-30T01:16:28.220Z,5.00
2018-03-30T01:17:35.080Z,5.00
2018-03-30T01:18:41.767Z,7.20
2018-03-30T01:19:48.485Z,5.20
2018-03-30T01:20:55.206Z,4.60
2018-03-30T01:22:02.062Z,4.30
2018-03-30T01:23:08.854Z,7.30
2018-03-30T01:24:15.571Z,4.60
2018-03-30T01:25:22.299Z,5.00
2018-03-30T01:26:29.116Z,5.00
2018-03-30T01:27:35.844Z,5.10
2018-03-30T01:28:42.614Z,5.40
2018-03-30T01:29:49.857Z,4.70
2018-03-30T01:30:56.600Z,4.90
2018-03-30T01:32:03.535Z,4.50
2018-03-30T01:33:10.469Z,4.70
2018-03-30T01:34:17.212Z,4.80
2018-03-30T01:35:23.970Z,4.70
2018-03-30T01:36:30.701Z,4.80
2018-03-30T01:37:37.419Z,4.70
2018-03-30T01:38:44.264Z,5.60
2018-03-30T01:39:51.076Z,5.00
2018-03-30T01:40:57.841Z,5.00
2018-03-30T01:42:04.601Z,4.80
2018-03-30T01:43:11.385Z,5.20
2018-03-30T01:44:18.123Z,5.50
2018-03-30T01:45:24.908Z,5.60
2018-03-30T01:46:31.684Z,5.00
2018-03-30T01:47:38.553Z,6.00
2018-03-30T01:48:45.447Z,4.90
2018-03-30T01:49:52.149Z,5.60
2018-03-30T01:50:58.908Z,5.10
2018-03-30T01:52:05.657Z,5.30
2018-03-30T01:53:12.376Z,4.70
2018-03-30T01:54:19.171Z,4.60
2018-03-30T01:55:25.892Z,4.70
2018-03-30T01:56:32.648Z,5.70
2018-03-30T01:57:39.391Z,4.60
2018-03-30T01:58:46.196Z,5.80
2018-03-30T01:59:52.900Z,4.90
2018-03-30T02:00:59.641Z,5.00
2018-03-30T02:02:06.421Z,5.60
2018-03-30T02:03:13.137Z,4.90
2018-03-30T02:04:19.990Z,4.70
2018-03-30T02:05:26.818Z,5.30
2018-03-30T02:06:33.840Z,4.90
2018-03-30T02:07:40.612Z,6.00
2018-03-30T02:08:47.335Z,5.00
2018-03-30T02:09:54.278Z,5.10
2018-03-30T02:11:01.050Z,5.10
2018-03-30T02:12:07.972Z,5.00
2018-03-30T02:13:14.773Z,5.10
2018-03-30T02:14:21.524Z,4.90
2018-03-30T02:15:28.407Z,4.40
2018-03-30T02:16:35.316Z,6.00
2018-03-30T02:17:42.169Z,4.80
2018-03-30T02:18:48.914Z,5.50
2018-03-30T02:19:55.693Z,5.30
2018-03-30T02:21:02.417Z,5.20
2018-03-30T02:22:09.193Z,5.90
2018-03-30T02:23:16.030Z,5.40
2018-03-30T02:24:22.831Z,5.70
2018-03-30T02:25:29.712Z,6.30
2018-03-30T02:26:36.433Z,6.20
2018-03-30T02:27:43.197Z,4.80
2018-03-30T02:28:49.985Z,6.40
2018-03-30T02:29:56.724Z,5.70
2018-03-30T02:31:03.457Z,5.40
2018-03-30T02:32:10.153Z,5.70
2018-03-30T02:33:16.874Z,7.20
2018-03-30T02:34:23.679Z,7.60
2018-03-30T02:35:30.377Z,5.50
2018-03-30T02:36:37.078Z,5.70
2018-03-30T02:37:43.836Z,5.90
2018-03-30T02:38:50.747Z,5.60
2018-03-30T02:39:57.474Z,5.50
2018-03-30T02:41:04.197Z,6.00
2018-03-30T02:42:10.921Z,6.80
2018-03-30T02:43:17.630Z,5.50
2018-03-30T02:44:24.429Z,5.90
2018-03-30T02:45:31.142Z,5.20
2018-03-30T02:46:37.870Z,5.60
2018-03-30T02:47:44.645Z,5.20
2018-03-30T02:48:51.485Z,5.50
2018-03-30T02:49:58.173Z,5.30
2018-03-30T02:51:04.880Z,6.00
2018-03-30T02:52:11.565Z,5.30
2018-03-30T02:53:18.334Z,8.60
2018-03-30T02:54:25.059Z,5.50
2018-03-30T02:55:31.849Z,5.80
2018-03-30T02:56:38.556Z,5.80
2018-03-30T02:57:45.297Z,5.60
2018-03-30T02:58:52.050Z,5.20
2018-03-30T02:59:58.989Z,5.90
2018-03-30T03:01:05.712Z,6.30
2018-03-30T03:02:12.457Z,6.90
2018-03-30T03:03:19.186Z,5.80
2018-03-30T03:04:26.017Z,5.90
2018-03-30T03:05:32.777Z,6.30
2018-03-30T03:06:39.485Z,6.50
2018-03-30T03:07:46.212Z,6.20
2018-03-30T03:08:52.908Z,5.40
2018-03-30T03:09:59.689Z,5.40
2018-03-30T03:11:06.420Z,6.50
2018-03-30T03:12:13.113Z,6.20
2018-03-30T03:13:19.821Z,5.60
2018-03-30T03:14:26.613Z,6.70
2018-03-30T03:15:33.328Z,6.40
2018-03-30T03:16:40.114Z,8.10
2018-03-30T03:17:46.797Z,6.90
2018-03-30T03:18:53.518Z,6.10
2018-03-30T03:20:00.216Z,6.00
2018-03-30T03:21:06.984Z,8.10
2018-03-30T03:22:13.684Z,6.90
2018-03-30T03:23:20.469Z,6.70
2018-03-30T03:24:27.176Z,6.20
2018-03-30T03:25:33.893Z,7.10
2018-03-30T03:26:40.716Z,6.10
2018-03-30T03:27:47.436Z,8.10
2018-03-30T03:28:54.236Z,7.70
2018-03-30T03:30:01.009Z,5.20
2018-03-30T03:31:07.858Z,6.90
2018-03-30T03:32:14.620Z,6.60
2018-03-30T03:33:21.370Z,6.90
2018-03-30T03:34:28.129Z,6.30
2018-03-30T03:35:34.889Z,6.90
2018-03-30T03:36:41.672Z,6.30
2018-03-30T03:37:48.380Z,7.40
2018-03-30T03:38:55.229Z,6.90
2018-03-30T03:40:02.124Z,7.00
2018-03-30T03:41:08.922Z,7.90
2018-03-30T03:42:15.717Z,8.40
2018-03-30T03:43:22.453Z,7.40
2018-03-30T03:44:29.210Z,5.80
2018-03-30T03:45:35.952Z,6.30
2018-03-30T03:46:42.719Z,7.30
2018-03-30T03:47:49.515Z,7.10
2018-03-30T03:48:56.244Z,6.50
2018-03-30T03:50:03.043Z,6.90
2018-03-30T03:51:09.917Z,8.00
2018-03-30T03:52:16.678Z,7.80
2018-03-30T03:53:23.428Z,6.40
2018-03-30T03:54:30.171Z,7.80
2018-03-30T03:55:36.896Z,7.50
2018-03-30T03:56:43.668Z,7.30
2018-03-30T03:57:50.420Z,7.00
2018-03-30T03:58:57.141Z,6.30
2018-03-30T04:00:03.869Z,6.40
2018-03-30T04:01:10.745Z,6.50
2018-03-30T04:02:17.478Z,8.20
2018-03-30T04:03:24.221Z,6.60
2018-03-30T04:04:30.948Z,8.00
2018-03-30T04:05:37.797Z,6.80
2018-03-30T04:06:44.617Z,8.90
2018-03-30T04:07:51.374Z,9.80
2018-03-30T04:08:58.219Z,7.10
2018-03-30T04:10:05.013Z,6.40
2018-03-30T04:11:11.849Z,7.90
2018-03-30T04:12:18.630Z,6.20
2018-03-30T04:13:25.382Z,5.80
2018-03-30T04:14:32.105Z,9.40
2018-03-30T04:15:38.842Z,5.90
2018-03-30T04:16:45.575Z,7.40
2018-03-30T04:17:52.323Z,7.10
2018-03-30T04:18:59.060Z,6.60
2018-03-30T04:20:05.787Z,8.20
2018-03-30T04:21:12.532Z,7.30
2018-03-30T04:22:19.281Z,6.30
2018-03-30T04:23:26.040Z,7.50
2018-03-30T04:24:32.769Z,6.60
2018-03-30T04:25:39.517Z,7.70
2018-03-30T04:26:46.364Z,9.90
2018-03-30T04:27:53.112Z,7.10
2018-03-30T04:28:59.932Z,6.80
2018-03-30T04:30:06.793Z,6.60
2018-03-30T04:31:13.554Z,6.90
2018-03-30T04:32:20.273Z,7.40
2018-03-30T04:33:26.986Z,6.60
2018-03-30T04:34:33.708Z,8.20
2018-03-30T04:35:40.428Z,6.10
2018-03-30T04:36:47.124Z,8.90
2018-03-30T04:37:53.938Z,6.70
2018-03-30T04:39:00.705Z,8.80
2018-03-30T04:40:07.690Z,7.80
2018-03-30T04:41:14.469Z,6.80
2018-03-30T04:42:21.302Z,6.00
2018-03-30T04:43:28.104Z,6.60
2018-03-30T04:44:34.806Z,8.40
2018-03-30T04:45:41.563Z,6.10
2018-03-30T04:46:48.276Z,6.30
2018-03-30T04:47:55.002Z,7.80
2018-03-30T04:49:01.796Z,12.20
2018-03-30T04:50:08.489Z,8.20
2018-03-30T04:51:15.228Z,8.60
2018-03-30T04:52:21.989Z,7.60
2018-03-30T04:53:28.785Z,8.00
2018-03-30T04:54:35.510Z,7.00
2018-03-30T04:55:42.389Z,7.80
2018-03-30T04:56:49.092Z,9.10
2018-03-30T04:57:55.909Z,8.50
2018-03-30T04:59:02.620Z,8.30
2018-03-30T05:00:09.403Z,9.30
2018-03-30T05:01:16.116Z,8.40
2018-03-30T05:02:22.897Z,8.80
2018-03-30T05:03:29.659Z,8.60
2018-03-30T05:04:36.372Z,6.70
2018-03-30T05:05:43.102Z,10.30
2018-03-30T05:06:49.944Z,7.90
2018-03-30T05:07:56.730Z,8.80
2018-03-30T05:09:03.490Z,9.30
2018-03-30T05:10:10.244Z,9.30
2018-03-30T05:11:16.957Z,9.00
2018-03-30T05:12:23.756Z,7.90
2018-03-30T05:13:30.554Z,9.70
2018-03-30T05:14:37.289Z,8.90
2018-03-30T05:15:44.203Z,7.70
2018-03-30T05:16:51.087Z,8.10
2018-03-30T05:17:58.064Z,9.60
2018-03-30T05:19:05.234Z,9.70
2018-03-30T05:20:12.266Z,7.80
2018-03-30T05:21:19.317Z,8.40
2018-03-30T05:22:26.423Z,8.90
2018-03-30T05:23:32.771Z,9.00
2018-03-30T05:24:39.568Z,8.60
2018-03-30T05:25:46.284Z,7.80
2018-03-30T05:26:53.187Z,8.30
2018-03-30T05:28:00.278Z,7.40
2018-03-30T05:29:07.028Z,7.70
2018-03-30T05:30:13.838Z,7.50
2018-03-30T05:31:20.712Z,7.80
2018-03-30T05:32:27.471Z,7.80
2018-03-30T05:33:34.233Z,8.20
2018-03-30T05:34:40.992Z,8.20
2018-03-30T05:35:47.778Z,10.70
2018-03-30T05:36:54.642Z,7.50
2018-03-30T05:38:01.380Z,6.70
2018-03-30T05:39:08.332Z,8.10
2018-03-30T05:40:15.188Z,7.20
2018-03-30T05:41:21.957Z,6.80
2018-03-30T05:42:28.696Z,7.20
2018-03-30T05:43:35.421Z,10.30
2018-03-30T05:44:42.196Z,7.90
2018-03-30T05:45:49.021Z,8.10
2018-03-30T05:46:55.770Z,7.70
2018-03-30T05:48:02.539Z,9.10
2018-03-30T05:49:09.550Z,10.00
2018-03-30T05:50:16.349Z,10.00
2018-03-30T05:51:23.081Z,8.30
2018-03-30T05:52:29.906Z,8.70
2018-03-30T05:53:36.628Z,8.90
2018-03-30T05:54:43.433Z,7.30
2018-03-30T05:55:50.155Z,12.50
2018-03-30T05:56:57.285Z,7.90
2018-03-30T05:58:04.120Z,9.90
2018-03-30T05:59:10.884Z,10.10
2018-03-30T06:00:17.978Z,9.40
2018-03-30T06:01:24.568Z,10.60
2018-03-30T06:02:31.313Z,8.90
2018-03-30T06:03:38.065Z,9.20
2018-03-30T06:04:44.822Z,10.50
2018-03-30T06:05:51.564Z,8.80
2018-03-30T06:06:58.338Z,10.70
2018-03-30T06:08:05.104Z,8.90
2018-03-30T06:09:11.837Z,10.20
2018-03-30T06:10:18.578Z,10.20
2018-03-30T06:11:25.445Z,14.10
2018-03-30T06:12:32.164Z,15.10
2018-03-30T06:13:38.932Z,13.40
2018-03-30T06:14:45.662Z,13.70
2018-03-30T06:15:52.544Z,14.60
2018-03-30T06:16:59.270Z,18.70
2018-03-30T06:18:06.013Z,23.10
2018-03-30T06:19:12.793Z,24.60
2018-03-30T06:20:19.609Z,24.20
2018-03-30T06:21:26.371Z,21.80
2018-03-30T06:22:33.128Z,20.30
2018-03-30T06:23:39.913Z,18.40
2018-03-30T06:24:46.731Z,21.40
2018-03-30T06:25:53.509Z,16.60
2018-03-30T06:27:00.300Z,15.40
2018-03-30T06:28:07.152Z,17.10
2018-03-30T06:29:13.885Z,17.60
2018-03-30T06:30:20.654Z,14.10
2018-03-30T06:31:27.452Z,16.70
2018-03-30T06:32:34.261Z,15.40
2018-03-30T06:33:40.964Z,16.70
2018-03-30T06:34:47.708Z,14.90
2018-03-30T06:35:54.424Z,10.90
2018-03-30T06:37:01.222Z,11.20
2018-03-30T06:38:08.024Z,11.40
2018-03-30T06:39:14.771Z,10.30
2018-03-30T06:40:21.572Z,10.80
2018-03-30T06:41:28.511Z,9.60
2018-03-30T06:42:35.302Z,12.50
2018-03-30T06:43:42.020Z,12.20
2018-03-30T06:44:48.814Z,10.10
2018-03-30T06:45:55.528Z,10.20
2018-03-30T06:47:02.282Z,9.90
2018-03-30T06:48:09.003Z,10.60
2018-03-30T06:49:15.705Z,10.90
2018-03-30T06:50:22.425Z,9.90
2018-03-30T06:51:29.176Z,11.30
2018-03-30T06:52:35.893Z,10.20
2018-03-30T06:53:42.629Z,10.40
2018-03-30T06:54:49.394Z,14.30
2018-03-30T06:55:56.260Z,10.90
2018-03-30T06:57:02.958Z,10.50
2018-03-30T06:58:09.718Z,13.90
2018-03-30T06:59:16.434Z,11.50
2018-03-30T07:00:23.160Z,11.90
2018-03-30T07:01:29.851Z,13.60
2018-03-30T07:02:36.637Z,14.00
2018-03-30T07:03:43.316Z,13.80
2018-03-30T07:04:50.044Z,14.60
2018-03-30T07:05:56.796Z,12.30
2018-03-30T07:07:03.524Z,13.60
2018-03-30T07:08:10.583Z,15.70
2018-03-30T07:09:17.304Z,16.40
2018-03-30T07:10:24.063Z,17.60
2018-03-30T07:11:30.820Z,17.10
2018-03-30T07:12:37.859Z,15.60
2018-03-30T07:13:44.624Z,14.70
2018-03-30T07:14:51.332Z,13.60
2018-03-30T07:15:58.052Z,13.30
2018-03-30T07:17:04.753Z,13.50
2018-03-30T07:18:11.585Z,12.80
2018-03-30T07:19:18.311Z,11.40
2018-03-30T07:20:25.037Z,10.70
2018-03-30T07:21:31.811Z,15.20
2018-03-30T07:22:38.517Z,20.90
2018-03-30T07:23:45.247Z,18.50
2018-03-30T07:24:52.021Z,19.10
2018-03-30T07:25:58.757Z,15.00
2018-03-30T07:27:05.506Z,11.50
2018-03-30T07:28:12.209Z,16.00
2018-03-30T07:29:18.954Z,15.80
2018-03-30T07:30:25.741Z,13.40
2018-03-30T07:31:32.476Z,15.00
2018-03-30T07:32:39.303Z,10.90
2018-03-30T07:33:46.048Z,14.90
2018-03-30T07:34:52.840Z,13.60
2018-03-30T07:35:59.596Z,9.40
2018-03-30T07:37:06.400Z,10.30
2018-03-30T07:38:13.259Z,10.00
2018-03-30T07:39:20.055Z,10.30
2018-03-30T07:40:26.797Z,10.70
2018-03-30T07:41:33.897Z,11.70
2018-03-30T07:42:40.636Z,10.10
2018-03-30T07:43:47.440Z,9.90
2018-03-30T07:44:54.304Z,10.00
2018-03-30T07:46:01.055Z,9.40
2018-03-30T07:47:07.848Z,11.50
2018-03-30T07:48:14.600Z,8.00
2018-03-30T07:49:21.348Z,7.50
2018-03-30T07:50:28.309Z,7.50
2018-03-30T07:51:35.070Z,7.40
2018-03-30T07:52:41.858Z,7.20
2018-03-30T07:53:48.603Z,7.50
2018-03-30T07:54:55.389Z,9.60
2018-03-30T07:56:02.129Z,7.20
2018-03-30T07:57:08.924Z,6.50
2018-03-30T07:58:15.780Z,6.10
2018-03-30T07:59:22.482Z,7.40
2018-03-30T08:00:29.224Z,6.20
2018-03-30T08:01:35.958Z,7.80
2018-03-30T08:02:42.705Z,7.50
2018-03-30T08:03:49.493Z,7.30
2018-03-30T08:04:56.329Z,8.40
2018-03-30T08:06:03.092Z,9.50
2018-03-30T08:07:09.841Z,9.40
2018-03-30T08:08:16.565Z,7.10
2018-03-30T08:09:23.312Z,8.30
2018-03-30T08:10:30.084Z,7.70
2018-03-30T08:11:36.781Z,9.30
2018-03-30T08:12:43.504Z,7.90
2018-03-30T08:13:50.268Z,6.50
2018-03-30T08:14:57.028Z,7.60
2018-03-30T08:16:03.798Z,6.20
2018-03-30T08:17:10.537Z,7.00
2018-03-30T08:18:17.401Z,6.90
2018-03-30T08:19:24.146Z,7.20
2018-03-30T08:20:30.910Z,6.30
2018-03-30T08:21:37.645Z,7.70
2018-03-30T08:22:44.463Z,6.10
2018-03-30T08:23:51.164Z,5.40
2018-03-30T08:24:57.912Z,7.10
2018-03-30T08:26:04.806Z,5.60
2018-03-30T08:27:11.578Z,8.20
2018-03-30T08:28:18.308Z,6.60
2018-03-30T08:29:25.044Z,7.20
2018-03-30T08:30:31.771Z,7.60
2018-03-30T08:31:38.605Z,6.20
2018-03-30T08:32:45.330Z,6.70
2018-03-30T08:33:52.056Z,6.30
2018-03-30T08:34:58.784Z,6.50
2018-03-30T08:36:05.537Z,9.20
2018-03-30T08:37:12.309Z,6.40
2018-03-30T08:38:19.025Z,9.00
2018-03-30T08:39:25.862Z,12.00
2018-03-30T08:40:32.845Z,5.60
2018-03-30T08:41:39.572Z,6.20
2018-03-30T08:42:46.322Z,5.80
2018-03-30T08:43:53.047Z,8.10
2018-03-30T08:44:59.808Z,8.00
2018-03-30T08:46:06.557Z,8.60
2018-03-30T08:47:13.418Z,8.70
2018-03-30T08:48:20.386Z,7.70
2018-03-30T08:49:26.876Z,6.70
2018-03-30T08:50:34.075Z,9.40
2018-03-30T08:51:40.652Z,7.40
2018-03-30T08:52:47.417Z,6.20
2018-03-30T08:53:54.139Z,6.30
2018-03-30T08:55:00.876Z,8.30
2018-03-30T08:56:07.758Z,6.70
2018-03-30T08:57:14.633Z,8.10
2018-03-30T08:58:21.486Z,6.10
2018-03-30T08:59:28.267Z,6.60
2018-03-30T09:00:35.000Z,6.60
2018-03-30T09:01:41.929Z,5.90
2018-03-30T09:02:48.882Z,5.90
2018-03-30T09:03:55.721Z,7.00
2018-03-30T09:05:02.456Z,6.60
2018-03-30T09:06:09.440Z,9.40
2018-03-30T09:07:16.653Z,6.70
2018-03-30T09:08:23.380Z,5.40
2018-03-30T09:09:30.456Z,6.20
2018-03-30T09:10:37.324Z,8.00
2018-03-30T09:11:44.296Z,6.40
2018-03-30T09:12:51.040Z,7.10
2018-03-30T09:13:57.887Z,5.80
2018-03-30T09:15:04.636Z,5.60
2018-03-30T09:16:11.364Z,6.10
2018-03-30T09:17:18.181Z,5.80
2018-03-30T09:18:24.937Z,6.60
2018-03-30T09:19:31.708Z,5.60
2018-03-30T09:20:38.454Z,4.80
2018-03-30T09:21:45.210Z,7.80
2018-03-30T09:22:52.008Z,5.50
2018-03-30T09:23:58.790Z,6.60
2018-03-30T09:25:05.520Z,6.80
2018-03-30T09:26:12.250Z,7.20
2018-03-30T09:27:18.973Z,5.30
2018-03-30T09:28:25.814Z,5.00
2018-03-30T09:29:32.594Z,5.30
2018-03-30T09:30:39.389Z,5.00
2018-03-30T09:31:46.141Z,6.00
2018-03-30T09:32:53.093Z,5.20
2018-03-30T09:33:59.885Z,5.30
2018-03-30T09:35:06.609Z,5.80
2018-03-30T09:36:13.392Z,5.40
2018-03-30T09:37:20.101Z,7.50
2018-03-30T09:38:26.870Z,5.30
2018-03-30T09:39:33.621Z,5.50
2018-03-30T09:40:40.513Z,4.90
2018-03-30T09:41:47.280Z,4.50
2018-03-30T09:42:54.206Z,5.00
2018-03-30T09:44:00.948Z,7.30
2018-03-30T09:45:07.681Z,6.60
2018-03-30T09:46:14.420Z,4.40
2018-03-30T09:47:21.147Z,4.70
2018-03-30T09:48:28.023Z,5.10
2018-03-30T09:49:34.776Z,5.00
2018-03-30T09:50:41.529Z,3.90
2018-03-30T09:51:48.460Z,4.90
2018-03-30T09:52:55.179Z,4.60
2018-03-30T09:54:01.939Z,5.30
2018-03-30T09:55:08.693Z,4.60
2018-03-30T09:56:17.883Z,7.10
2018-03-30T09:57:22.509Z,4.90
2018-03-30T09:58:29.248Z,6.40
2018-03-30T09:59:36.016Z,5.20
2018-03-30T10:00:42.837Z,5.50
2018-03-30T10:01:49.635Z,5.10
2018-03-30T10:02:56.464Z,6.20
2018-03-30T10:04:03.220Z,5.00
2018-03-30T10:05:09.940Z,4.70
2018-03-30T10:06:16.689Z,4.20
2018-03-30T10:07:23.397Z,4.50
2018-03-30T10:08:30.163Z,4.20
2018-03-30T10:09:36.905Z,4.90
2018-03-30T10:10:43.700Z,5.90
2018-03-30T10:11:50.543Z,8.40
2018-03-30T10:12:57.379Z,6.10
2018-03-30T10:14:04.222Z,5.40
2018-03-30T10:15:11.017Z,4.80
2018-03-30T10:16:17.755Z,4.40
2018-03-30T10:17:24.566Z,4.30
2018-03-30T10:18:31.275Z,4.30
2018-03-30T10:19:38.145Z,5.60
2018-03-30T10:20:44.900Z,6.00
2018-03-30T10:21:51.664Z,5.20
2018-03-30T10:22:58.465Z,6.50
2018-03-30T10:24:05.216Z,7.80
2018-03-30T10:25:12.087Z,5.50
2018-03-30T10:26:18.801Z,5.40
2018-03-30T10:27:25.772Z,5.40
2018-03-30T10:28:32.492Z,5.50
2018-03-30T10:29:39.303Z,6.30
2018-03-30T10:30:46.095Z,5.20
2018-03-30T10:31:52.890Z,6.70
2018-03-30T10:32:59.629Z,4.50
2018-03-30T10:34:06.369Z,4.30
2018-03-30T10:35:13.113Z,3.60
2018-03-30T10:36:19.881Z,5.70
2018-03-30T10:37:26.614Z,6.70
2018-03-30T10:38:33.381Z,4.80
2018-03-30T10:39:40.360Z,4.40
2018-03-30T10:40:47.260Z,4.70
2018-03-30T10:41:54.047Z,3.90
2018-03-30T10:43:00.747Z,4.20
2018-03-30T10:44:07.515Z,3.70
2018-03-30T10:45:14.299Z,3.60
2018-03-30T10:46:21.097Z,3.80
2018-03-30T10:47:27.845Z,3.90
2018-03-30T10:48:34.633Z,5.50
2018-03-30T10:49:41.335Z,6.90
2018-03-30T10:50:48.148Z,5.30
2018-03-30T10:51:54.893Z,3.60
2018-03-30T10:53:01.659Z,4.00
2018-03-30T10:54:08.381Z,5.70
2018-03-30T10:55:15.304Z,3.40
2018-03-30T10:56:22.078Z,5.00
2018-03-30T10:57:28.831Z,3.70
2018-03-30T10:58:35.708Z,3.70
2018-03-30T10:59:42.695Z,4.80
2018-03-30T11:00:49.445Z,3.80
2018-03-30T11:01:56.232Z,4.30
2018-03-30T11:03:03.105Z,4.50
2018-03-30T11:04:09.839Z,4.00
2018-03-30T11:05:16.695Z,4.70
2018-03-30T11:06:23.408Z,3.40
2018-03-30T11:07:30.137Z,3.90
2018-03-30T11:08:36.852Z,3.70
2018-03-30T11:09:43.613Z,3.50
2018-03-30T11:10:50.348Z,3.50
2018-03-30T11:11:57.168Z,4.50
2018-03-30T11:13:03.886Z,3.40
2018-03-30T11:14:10.718Z,3.80
2018-03-30T11:15:17.566Z,3.40
2018-03-30T11:16:24.349Z,3.40
2018-03-30T11:17:31.114Z,3.70
2018-03-30T11:18:37.844Z,3.20
2018-03-30T11:19:44.636Z,3.10
2018-03-30T11:20:52.223Z,3.40
2018-03-30T11:21:58.501Z,4.10
2018-03-30T11:23:05.290Z,3.60
2018-03-30T11:24:12.040Z,3.80
2018-03-30T11:25:18.812Z,3.50
2018-03-30T11:26:25.635Z,3.40
2018-03-30T11:27:32.402Z,3.10
2018-03-30T11:28:39.236Z,3.50
2018-03-30T11:29:46.103Z,2.90
2018-03-30T11:30:52.823Z,3.10
2018-03-30T11:31:59.661Z,3.20
2018-03-30T11:33:06.435Z,3.10
2018-03-30T11:34:13.237Z,4.20
2018-03-30T11:35:20.028Z,2.90
2018-03-30T11:36:26.876Z,3.20
2018-03-30T11:37:33.668Z,2.90
2018-03-30T11:38:40.510Z,3.60
2018-03-30T11:39:47.338Z,3.50
2018-03-30T11:40:54.240Z,3.20
2018-03-30T11:42:01.074Z,3.20
2018-03-30T11:43:07.820Z,2.90
2018-03-30T11:44:14.672Z,3.50
2018-03-30T11:45:21.426Z,2.90
2018-03-30T11:46:28.234Z,3.20
2018-03-30T11:47:35.051Z,2.90
2018-03-30T11:48:41.769Z,3.10
2018-03-30T11:49:48.620Z,3.20
2018-03-30T11:50:55.421Z,2.90
2018-03-30T11:52:02.224Z,3.60
2018-03-30T11:53:08.987Z,3.30
2018-03-30T11:54:15.808Z,3.00
2018-03-30T11:55:22.536Z,3.00
2018-03-30T11:56:29.325Z,3.00
2018-03-30T11:57:36.196Z,3.00
2018-03-30T11:58:42.939Z,4.00
2018-03-30T11:59:49.745Z,3.70
2018-03-30T12:00:56.575Z,3.20
2018-03-30T12:02:03.341Z,2.90
2018-03-30T12:03:10.105Z,2.90
2018-03-30T12:04:16.862Z,2.60
2018-03-30T12:05:23.627Z,2.80
2018-03-30T12:06:30.413Z,2.60
2018-03-30T12:07:37.176Z,2.80
2018-03-30T12:08:44.006Z,4.40
2018-03-30T12:09:50.753Z,3.80
2018-03-30T12:10:57.513Z,2.90
2018-03-30T12:12:04.316Z,3.10
2018-03-30T12:13:11.122Z,3.60
2018-03-30T12:14:17.888Z,5.40
2018-03-30T12:15:24.671Z,2.90
2018-03-30T12:16:31.507Z,2.60
2018-03-30T12:17:38.265Z,2.80
2018-03-30T12:18:45.070Z,4.40
2018-03-30T12:19:51.919Z,2.90
2018-03-30T12:20:58.657Z,2.60
2018-03-30T12:22:05.485Z,2.30
2018-03-30T12:23:12.432Z,2.70
2018-03-30T12:24:19.174Z,2.70
2018-03-30T12:25:25.992Z,2.80
2018-03-30T12:26:32.934Z,3.10
2018-03-30T12:27:39.768Z,2.80
2018-03-30T12:28:46.546Z,2.90
2018-03-30T12:29:53.300Z,4.30
2018-03-30T12:31:00.018Z,2.60
2018-03-30T12:32:12.074Z,2.60
2018-03-30T12:33:13.877Z,3.00
2018-03-30T12:34:20.657Z,2.80
2018-03-30T12:35:27.422Z,2.50
2018-03-30T12:36:34.172Z,2.40
2018-03-30T12:37:40.892Z,2.50
2018-03-30T12:38:48.201Z,2.90
2018-03-30T12:39:54.519Z,2.80
2018-03-30T12:41:01.247Z,4.00
2018-03-30T12:42:08.125Z,2.70
2018-03-30T12:43:15.135Z,2.50
2018-03-30T12:44:21.951Z,2.50
2018-03-30T12:45:28.685Z,2.90
2018-03-30T12:46:35.419Z,2.90
2018-03-30T12:47:42.112Z,2.90
2018-03-30T12:48:48.881Z,2.50
2018-03-30T12:49:55.621Z,3.10
2018-03-30T12:51:02.366Z,2.60
2018-03-30T12:52:09.276Z,2.90
2018-03-30T12:53:16.024Z,3.30
2018-03-30T12:54:22.969Z,2.60
2018-03-30T12:55:29.692Z,2.50
2018-03-30T12:56:36.396Z,3.20
2018-03-30T12:57:43.136Z,4.00
2018-03-30T12:58:49.880Z,3.20
2018-03-30T12:59:56.616Z,3.20
2018-03-30T13:01:03.349Z,3.40
2018-03-30T13:02:10.108Z,2.90
2018-03-30T13:03:16.879Z,2.90
2018-03-30T13:04:23.773Z,2.80
2018-03-30T13:05:30.713Z,3.50
2018-03-30T13:06:37.521Z,2.60
2018-03-30T13:07:44.345Z,2.70
2018-03-30T13:08:51.209Z,3.30
2018-03-30T13:09:57.995Z,3.20
2018-03-30T13:11:04.772Z,3.20
2018-03-30T13:12:12.078Z,2.80
2018-03-30T13:13:18.604Z,2.80
2018-03-30T13:14:25.499Z,3.70
2018-03-30T13:15:32.208Z,2.60
2018-03-30T13:16:38.968Z,2.60
2018-03-30T13:17:46.009Z,3.10
2018-03-30T13:18:52.820Z,3.20
2018-03-30T13:19:59.655Z,2.70
2018-03-30T13:21:06.446Z,2.90
2018-03-30T13:22:13.347Z,2.80
2018-03-30T13:23:20.108Z,2.60
2018-03-30T13:24:26.897Z,2.60
2018-03-30T13:25:33.812Z,3.30
2018-03-30T13:26:40.568Z,3.70
2018-03-30T13:27:47.337Z,3.40
2018-03-30T13:28:54.098Z,3.20
2018-03-30T13:30:00.915Z,3.00
2018-03-30T13:31:07.869Z,3.10
2018-03-30T13:32:14.663Z,3.20
2018-03-30T13:33:21.442Z,3.30
2018-03-30T13:34:28.263Z,2.90
2018-03-30T13:35:35.055Z,5.70
2018-03-30T13:36:41.821Z,3.70
2018-03-30T13:37:48.960Z,3.20
2018-03-30T13:38:55.763Z,3.70
2018-03-30T13:40:02.641Z,3.60
2018-03-30T13:41:09.525Z,3.40
2018-03-30T13:42:16.354Z,3.80
2018-03-30T13:43:23.134Z,3.70
2018-03-30T13:44:29.913Z,3.10
2018-03-30T13:45:36.732Z,2.90
2018-03-30T13:46:43.569Z,3.20
2018-03-30T13:47:50.325Z,3.20
2018-03-30T13:48:57.109Z,2.90
2018-03-30T13:50:04.060Z,3.10
2018-03-30T13:51:10.956Z,3.30
2018-03-30T13:52:17.885Z,2.60
2018-03-30T13:53:24.804Z,2.70
2018-03-30T13:54:31.637Z,2.90
2018-03-30T13:55:38.589Z,2.80
2018-03-30T13:56:45.404Z,5.10
2018-03-30T13:57:52.310Z,3.00
2018-03-30T13:58:59.208Z,3.00
2018-03-30T14:00:06.124Z,3.00
2018-03-30T14:01:12.981Z,4.30
2018-03-30T14:02:19.833Z,3.40
2018-03-30T14:03:26.794Z,3.50
2018-03-30T14:04:33.753Z,3.10
2018-03-30T14:05:40.698Z,2.80
2018-03-30T14:06:47.549Z,3.60
2018-03-30T14:07:54.421Z,3.50
2018-03-30T14:09:01.298Z,3.20
2018-03-30T14:10:08.265Z,3.10
2018-03-30T14:11:15.117Z,3.20
2018-03-30T14:12:21.977Z,3.10
2018-03-30T14:13:28.845Z,3.10
2018-03-30T14:14:35.799Z,3.00
2018-03-30T14:15:42.801Z,3.10
2018-03-30T14:16:49.678Z,3.70
2018-03-30T14:17:57.627Z,3.30
2018-03-30T14:19:03.650Z,4.00
2018-03-30T14:20:10.548Z,3.50
2018-03-30T14:21:17.440Z,3.50
2018-03-30T14:22:24.431Z,3.60
2018-03-30T14:23:31.336Z,3.40
2018-03-30T14:24:38.224Z,3.60
2018-03-30T14:25:45.192Z,3.90
2018-03-30T14:26:52.157Z,3.10
2018-03-30T14:28:00.117Z,4.00
2018-03-30T14:29:06.123Z,3.50
2018-03-30T14:30:12.951Z,4.10
2018-03-30T14:31:19.871Z,2.80
2018-03-30T14:32:26.716Z,2.80
2018-03-30T14:33:33.690Z,3.30
2018-03-30T14:34:40.665Z,3.70
2018-03-30T14:35:47.529Z,3.30
2018-03-30T14:36:54.765Z,3.40
2018-03-30T14:38:01.668Z,3.40
2018-03-30T14:39:08.611Z,3.50
2018-03-30T14:40:15.472Z,3.30
2018-03-30T14:41:22.355Z,3.30
2018-03-30T14:42:29.212Z,3.20
2018-03-30T14:43:36.116Z,3.00
2018-03-30T14:44:43.349Z,3.70
2018-03-30T14:45:50.196Z,3.50
2018-03-30T14:46:57.064Z,3.60
2018-03-30T14:48:03.906Z,3.80
2018-03-30T14:49:10.764Z,3.90
2018-03-30T14:50:17.636Z,4.20
2018-03-30T14:51:24.501Z,3.40